Time;durP1;ratioP1;P1;durP2;ratioP2;P2;SDS_P1;SDS_P2;PMS_P1;PMS_P2;Temp;Humidity;BMP_temperature;BMP_pressure;BME280_temperature;BME280_humidity;BME280_pressure;Samples;Min_cycle;Max_cycle;Signal;HPM_P1;HPM_P2
2023/03/07 00:00:37;;;;;;;7.57;4.18;;;3.30;99.90;;;;;;5094630;28;20055;-65
2023/03/07 00:03:03;;;;;;;5.60;2.97;;;3.30;99.90;;;;;;5094795;28;20490;-65
2023/03/07 00:05:30;;;;;;;6.50;3.35;;;3.40;99.90;;;;;;5094368;28;20123;-65
2023/03/07 00:07:57;;;;;;;3.92;2.55;;;3.40;99.90;;;;;;5094708;28;20056;-65
2023/03/07 00:10:22;;;;;;;6.70;3.30;;;3.40;99.90;;;;;;5076616;28;20483;-65
2023/03/07 00:12:48;;;;;;;6.05;2.95;;;3.30;99.90;;;;;;5076272;28;20127;-66
2023/03/07 00:15:14;;;;;;;6.95;3.22;;;3.40;99.90;;;;;;5094622;28;20119;-65
2023/03/07 00:17:39;;;;;;;3.75;2.22;;;3.40;99.90;;;;;;5094133;28;20040;-65
2023/03/07 00:20:06;;;;;;;3.92;2.42;;;3.40;99.90;;;;;;5094421;28;20040;-65
2023/03/07 00:22:36;;;;;;;5.93;3.25;;;3.40;99.90;;;;;;5076048;28;20040;-65
2023/03/07 00:25:03;;;;;;;2.92;1.92;;;3.40;99.90;;;;;;5094057;28;20032;-65
2023/03/07 00:27:30;;;;;;;5.10;2.53;;;3.80;99.90;;;;;;5094285;28;20097;-65
2023/03/07 00:29:56;;;;;;;3.20;2.05;;;3.40;99.90;;;;;;5075962;28;20082;-65
2023/03/07 00:32:22;;;;;;;6.15;2.63;;;3.40;99.90;;;;;;5094264;28;20119;-65
2023/03/07 00:34:48;;;;;;;4.60;2.25;;;3.50;99.90;;;;;;5094220;28;20491;-65
2023/03/07 00:37:14;;;;;;;3.38;1.83;;;3.50;99.90;;;;;;5093755;28;20042;-65
2023/03/07 00:39:41;;;;;;;3.72;1.95;;;3.50;99.90;;;;;;5094062;28;20119;-65
2023/03/07 00:42:07;;;;;;;4.18;2.08;;;3.50;99.90;;;;;;5093689;28;20051;-65
2023/03/07 00:44:33;;;;;;;2.85;1.40;;;3.50;99.90;;;;;;5094077;28;20039;-65
2023/03/07 00:46:58;;;;;;;2.42;1.23;;;3.50;99.90;;;;;;5093926;28;20032;-65
2023/03/07 00:49:24;;;;;;;1.90;0.95;;;3.40;99.90;;;;;;5075743;28;20427;-65
2023/03/07 00:51:50;;;;;;;2.20;1.00;;;3.50;99.90;;;;;;5075724;28;20498;-65
2023/03/07 00:54:16;;;;;;;0.80;0.68;;;3.50;99.90;;;;;;5075479;28;20506;-65
2023/03/07 00:56:42;;;;;;;2.15;0.80;;;3.40;99.90;;;;;;5075912;28;20036;-65
2023/03/07 00:59:08;;;;;;;5.07;0.82;;;3.40;99.90;;;;;;5093650;28;20479;-65
2023/03/07 01:01:34;;;;;;;0.50;0.40;;;3.30;99.90;;;;;;5093630;28;20047;-65
2023/03/07 01:03:59;;;;;;;2.50;1.48;;;4.00;99.90;;;;;;5093209;28;20036;-65
2023/03/07 01:06:28;;;;;;;0.90;0.47;;;3.30;99.90;;;;;;5093646;28;20042;-65
2023/03/07 01:08:59;;;;;;;1.15;0.60;;;3.20;99.90;;;;;;5093658;28;20046;-65
2023/03/07 01:11:26;;;;;;;0.25;0.25;;;3.20;99.90;;;;;;5093647;28;20067;-65
2023/03/07 01:13:55;;;;;;;0.90;0.40;;;3.20;99.90;;;;;;5075060;28;20044;-65
2023/03/07 01:16:23;;;;;;;0.77;0.40;;;3.20;99.90;;;;;;5093491;28;20537;-65
2023/03/07 01:18:52;;;;;;;0.45;0.30;;;2.90;99.90;;;;;;5093405;28;20047;-65
2023/03/07 01:21:21;;;;;;;0.55;0.40;;;3.20;99.90;;;;;;5075317;28;20040;-65
2023/03/07 01:23:47;;;;;;;0.65;0.52;;;4.20;99.90;;;;;;5093079;28;20082;-65
2023/03/07 01:26:16;;;;;;;5.38;1.05;;;3.20;99.90;;;;;;5075027;28;20040;-65
2023/03/07 01:28:41;;;;;;;5.93;0.45;;;3.20;99.90;;;;;;5074968;28;20040;-66
2023/03/07 01:31:07;;;;;;;1.20;0.60;;;3.30;99.90;;;;;;5075133;28;20036;-65
2023/03/07 01:33:33;;;;;;;0.45;0.30;;;3.20;99.90;;;;;;5074905;28;20055;-65
2023/03/07 01:35:58;;;;;;;3.67;0.40;;;3.30;99.90;;;;;;5093196;28;20440;-65
2023/03/07 01:38:24;;;;;;;0.60;0.40;;;4.50;99.90;;;;;;5093173;28;20032;-65
2023/03/07 01:40:50;;;;;;;5.85;0.90;;;3.40;99.90;;;;;;5092615;28;20080;-65
2023/03/07 01:43:28;;;;;;;2.33;0.47;;;3.40;99.90;;;;;;5093163;28;20360;-65
2023/03/07 01:46:16;;;;;;;0.55;0.47;;;3.40;99.90;;;;;;5092927;28;20055;-65
2023/03/07 01:49:03;;;;;;;4.95;0.88;;;3.40;99.90;;;;;;5093130;28;20043;-65
2023/03/07 01:51:31;;;;;;;0.22;0.22;;;3.30;99.90;;;;;;5092899;28;20093;-65
2023/03/07 01:53:59;;;;;;;0.30;0.30;;;3.40;99.90;;;;;;5074749;28;20585;-65
2023/03/07 01:56:25;;;;;;;1.17;0.50;;;3.30;99.90;;;;;;5092742;28;20052;-65
2023/03/07 01:58:53;;;;;;;1.65;0.50;;;3.30;99.90;;;;;;5092677;28;20036;-65
2023/03/07 02:01:18;;;;;;;1.17;0.40;;;3.40;99.90;;;;;;5092779;28;20495;-65
2023/03/07 02:04:07;;;;;;;0.60;0.47;;;3.20;99.90;;;;;;5092965;28;20123;-65
2023/03/07 02:06:36;;;;;;;0.22;0.20;;;3.20;99.90;;;;;;5081689;28;20048;-65
2023/03/07 02:09:04;;;;;;;1.02;0.88;;;3.20;99.90;;;;;;5093106;28;20395;-65
2023/03/07 02:11:30;;;;;;;2.92;0.63;;;3.20;99.90;;;;;;5092880;28;20040;-65
2023/03/07 02:13:55;;;;;;;8.10;0.73;;;4.00;99.90;;;;;;5092905;28;20555;-65
2023/03/07 02:16:21;;;;;;;0.45;0.45;;;3.10;99.90;;;;;;5092879;28;20395;-65
2023/03/07 02:18:48;;;;;;;6.30;0.60;;;3.20;99.90;;;;;;5092692;28;20046;-65
2023/03/07 02:21:47;;;;;;;2.95;0.75;;;3.20;99.90;;;;;;5074451;28;20403;-65
2023/03/07 02:24:31;;;;;;;1.27;0.40;;;3.30;99.90;;;;;;5074489;28;20043;-65
2023/03/07 02:26:57;;;;;;;4.95;0.60;;;3.30;99.90;;;;;;5092382;28;20043;-65
2023/03/07 02:29:23;;;;;;;3.13;0.43;;;3.90;99.90;;;;;;5092721;28;20040;-65
2023/03/07 02:31:49;;;;;;;2.83;0.50;;;3.40;99.90;;;;;;5092714;28;20535;-65
2023/03/07 02:34:22;;;;;;;0.50;0.40;;;3.20;99.90;;;;;;5092681;28;20040;-65
2023/03/07 02:36:51;;;;;;;2.40;0.45;;;3.70;99.90;;;;;;5092635;28;20044;-65
2023/03/07 02:39:20;;;;;;;1.80;0.52;;;3.20;99.90;;;;;;5092314;28;20119;-65
2023/03/07 02:41:47;;;;;;;2.78;0.55;;;3.30;99.90;;;;;;5092410;28;20119;-65
2023/03/07 02:44:13;;;;;;;1.73;0.80;;;3.20;99.90;;;;;;5074594;28;20473;-65
2023/03/07 02:46:38;;;;;;;3.75;0.60;;;3.20;99.90;;;;;;5092611;28;20120;-67
2023/03/07 02:49:04;;;;;;;2.13;0.73;;;3.10;99.90;;;;;;5074412;28;20055;-65
2023/03/07 02:51:30;;;;;;;1.02;0.60;;;3.00;99.90;;;;;;5092572;28;20058;-65
2023/03/07 02:53:56;;;;;;;3.08;0.35;;;3.10;99.90;;;;;;5076163;28;20607;-65
2023/03/07 02:56:23;;;;;;;1.70;0.82;;;3.00;99.90;;;;;;5096169;28;20040;-65
2023/03/07 02:58:48;;;;;;;5.18;1.02;;;2.90;99.90;;;;;;5060864;28;20051;-65
2023/03/07 03:01:14;;;;;;;2.22;0.80;;;2.90;99.90;;;;;;5096036;28;20036;-65
2023/03/07 03:03:40;;;;;;;5.35;0.60;;;2.90;99.90;;;;;;5095908;28;20032;-65
2023/03/07 03:06:09;;;;;;;2.15;0.55;;;2.90;99.90;;;;;;5095538;28;20746;-65
2023/03/07 03:08:34;;;;;;;0.40;0.40;;;2.90;99.90;;;;;;5077741;28;20062;-65
2023/03/07 03:11:00;;;;;;;4.75;0.73;;;2.90;99.90;;;;;;5095554;28;20123;-65
2023/03/07 03:13:25;;;;;;;3.58;0.60;;;2.90;99.90;;;;;;5095863;28;20139;-65
2023/03/07 03:15:55;;;;;;;3.33;0.70;;;2.80;99.90;;;;;;5095404;28;20039;-65
2023/03/07 03:18:21;;;;;;;0.47;0.32;;;2.90;99.90;;;;;;5095387;28;20043;-65
2023/03/07 03:20:46;;;;;;;3.78;1.20;;;2.90;99.90;;;;;;5095625;28;20040;-65
2023/03/07 03:23:12;;;;;;;10.80;1.15;;;2.80;99.90;;;;;;5095337;28;20127;-65
2023/03/07 03:25:37;;;;;;;1.60;1.42;;;2.90;99.90;;;;;;5095549;28;20043;-65
2023/03/07 03:28:03;;;;;;;2.15;0.65;;;2.80;99.90;;;;;;5077213;28;20067;-65
2023/03/07 03:30:31;;;;;;;1.33;0.50;;;2.80;99.90;;;;;;5095506;28;20040;-65
2023/03/07 03:32:57;;;;;;;6.72;1.05;;;3.70;99.90;;;;;;5060709;28;20127;-65
2023/03/07 03:35:23;;;;;;;3.53;0.63;;;2.80;99.90;;;;;;5095364;28;20042;-65
2023/03/07 03:37:48;;;;;;;2.75;0.50;;;2.70;99.90;;;;;;5095231;28;20477;-65
2023/03/07 03:40:16;;;;;;;3.75;0.95;;;2.70;99.90;;;;;;5095289;28;20043;-65
2023/03/07 03:42:43;;;;;;;4.50;0.40;;;2.70;99.90;;;;;;5095102;28;20036;-65
2023/03/07 03:45:10;;;;;;;0.15;0.15;;;2.60;99.90;;;;;;5095101;28;20089;-65
2023/03/07 03:47:36;;;;;;;1.77;0.40;;;2.60;99.90;;;;;;5076936;28;20464;-65
2023/03/07 03:50:03;;;;;;;0.22;0.22;;;2.60;99.90;;;;;;5094781;28;20075;-65
2023/03/07 03:52:29;;;;;;;4.43;0.82;;;2.60;99.90;;;;;;5095166;28;20036;-65
2023/03/07 03:54:54;;;;;;;2.92;0.50;;;2.60;99.90;;;;;;5094618;28;20040;-65
2023/03/07 03:57:20;;;;;;;0.32;0.28;;;2.60;99.90;;;;;;5095000;28;20107;-65
2023/03/07 03:59:46;;;;;;;0.95;0.68;;;2.50;99.90;;;;;;5076565;28;20044;-65
2023/03/07 04:02:12;;;;;;;2.80;0.32;;;2.50;99.90;;;;;;5076564;28;20043;-65
2023/03/07 04:04:38;;;;;;;3.67;0.55;;;2.50;99.90;;;;;;5094032;28;20059;-65
2023/03/07 04:07:03;;;;;;;8.27;0.60;;;2.60;99.90;;;;;;5094682;28;20127;-65
2023/03/07 04:09:30;;;;;;;11.50;0.77;;;2.60;99.90;;;;;;5094743;28;20568;-65
2023/03/07 04:11:56;;;;;;;9.75;1.17;;;2.60;99.90;;;;;;5094698;28;20031;-65
2023/03/07 04:14:22;;;;;;;0.88;0.47;;;2.40;99.90;;;;;;5076248;28;20040;-65
2023/03/07 04:16:47;;;;;;;1.17;0.98;;;2.60;99.90;;;;;;5059437;28;20101;-65
2023/03/07 04:19:13;;;;;;;4.93;0.85;;;2.60;99.90;;;;;;5094125;28;20075;-65
2023/03/07 04:21:39;;;;;;;1.08;0.47;;;2.70;99.90;;;;;;5076020;28;20085;-65
2023/03/07 04:24:08;;;;;;;2.08;0.30;;;2.70;99.90;;;;;;5075992;28;20040;-65
2023/03/07 04:26:35;;;;;;;2.55;0.60;;;2.60;99.90;;;;;;5094171;28;20403;-65
2023/03/07 04:29:01;;;;;;;1.67;0.43;;;2.60;99.90;;;;;;5094261;28;20036;-65
2023/03/07 04:31:27;;;;;;;10.75;0.95;;;3.50;99.90;;;;;;5094281;28;20044;-65
2023/03/07 04:33:54;;;;;;;0.47;0.45;;;2.70;99.90;;;;;;5094115;28;20426;-65
2023/03/07 04:36:22;;;;;;;5.38;0.40;;;2.70;99.90;;;;;;5093854;28;20082;-65
2023/03/07 04:38:48;;;;;;;8.93;0.57;;;2.60;99.90;;;;;;5094031;28;20032;-65
2023/03/07 04:41:16;;;;;;;3.42;0.57;;;2.60;99.90;;;;;;5093997;28;20036;-65
2023/03/07 04:43:42;;;;;;;2.65;1.00;;;2.50;99.90;;;;;;5094102;28;20063;-65
2023/03/07 04:46:09;;;;;;;2.58;0.73;;;2.50;99.90;;;;;;5093661;28;20032;-65
2023/03/07 04:48:34;;;;;;;3.00;0.73;;;2.50;99.90;;;;;;5075722;28;20561;-65
2023/03/07 04:51:00;;;;;;;3.20;0.70;;;2.50;99.90;;;;;;5093637;28;20071;-65
2023/03/07 04:53:26;;;;;;;3.75;0.45;;;2.50;99.90;;;;;;5093892;28;20079;-65
2023/03/07 04:55:57;;;;;;;5.18;2.38;;;2.60;99.90;;;;;;5093601;28;20046;-65
2023/03/07 04:58:23;;;;;;;4.63;0.55;;;2.50;99.90;;;;;;5093473;28;20075;-65
2023/03/07 05:00:48;;;;;;;0.47;0.30;;;2.50;99.90;;;;;;5093521;28;20075;-65
2023/03/07 05:03:14;;;;;;;0.52;0.40;;;2.50;99.90;;;;;;5093700;28;20539;-65
2023/03/07 05:05:40;;;;;;;8.23;0.40;;;2.50;99.90;;;;;;5093304;28;20119;-65
2023/03/07 05:08:06;;;;;;;5.43;0.52;;;2.60;99.90;;;;;;5093636;28;20048;-65
2023/03/07 05:10:33;;;;;;;1.83;0.73;;;2.60;99.90;;;;;;5093593;28;20036;-65
2023/03/07 05:12:59;;;;;;;0.70;0.40;;;2.60;99.90;;;;;;5093595;28;20040;-64
2023/03/07 05:15:24;;;;;;;6.22;0.60;;;2.60;99.90;;;;;;5093315;28;20040;-65
2023/03/07 05:17:50;;;;;;;1.20;0.20;;;2.70;99.90;;;;;;5092936;28;20047;-65
2023/03/07 05:20:16;;;;;;;1.80;0.80;;;2.70;99.90;;;;;;5093135;28;20053;-65
2023/03/07 05:22:42;;;;;;;2.92;0.60;;;2.70;99.90;;;;;;5093470;28;20051;-65
2023/03/07 05:25:07;;;;;;;1.88;0.52;;;2.70;99.90;;;;;;5093407;28;20495;-66
2023/03/07 05:27:33;;;;;;;2.15;0.57;;;2.70;99.90;;;;;;5075289;28;20039;-64
2023/03/07 05:29:59;;;;;;;3.17;0.40;;;2.70;99.90;;;;;;5093030;28;20036;-64
2023/03/07 05:32:24;;;;;;;3.17;0.63;;;2.70;99.90;;;;;;5093296;28;20040;-64
2023/03/07 05:34:50;;;;;;;2.40;0.63;;;2.70;99.90;;;;;;5093205;28;20035;-64
2023/03/07 05:37:15;;;;;;;0.38;0.20;;;2.70;99.90;;;;;;5093295;28;20764;-64
2023/03/07 05:39:41;;;;;;;0.88;0.40;;;2.70;99.90;;;;;;5092821;28;20492;-70
2023/03/07 05:42:07;;;;;;;2.95;1.10;;;2.70;99.90;;;;;;5074994;28;20032;-64
2023/03/07 05:44:32;;;;;;;3.45;0.73;;;2.70;99.90;;;;;;5093163;28;20047;-64
2023/03/07 05:46:58;;;;;;;2.17;0.40;;;2.70;99.90;;;;;;5074740;28;20040;-64
2023/03/07 05:49:24;;;;;;;3.22;0.75;;;2.70;99.90;;;;;;5075046;28;20044;-64
2023/03/07 05:51:50;;;;;;;4.75;0.90;;;2.70;99.90;;;;;;5093092;28;20085;-64
2023/03/07 05:54:16;;;;;;;4.57;0.55;;;2.80;99.90;;;;;;5092826;28;20086;-64
2023/03/07 05:56:42;;;;;;;3.17;0.55;;;2.80;99.90;;;;;;5093055;28;20095;-64
2023/03/07 05:59:10;;;;;;;1.67;0.70;;;2.80;99.90;;;;;;5092633;28;20082;-64
2023/03/07 06:01:35;;;;;;;2.40;0.50;;;2.80;99.90;;;;;;5092933;28;20115;-64
2023/03/07 06:04:01;;;;;;;6.20;0.50;;;2.80;99.90;;;;;;5092642;28;20071;-65
2023/03/07 06:06:27;;;;;;;1.95;0.38;;;2.80;99.90;;;;;;5092542;28;20101;-66
2023/03/07 06:08:53;;;;;;;1.48;0.50;;;2.90;99.90;;;;;;5092897;28;20471;-64
2023/03/07 06:11:18;;;;;;;0.80;0.80;;;2.90;99.90;;;;;;5092952;28;20040;-64
2023/03/07 06:13:45;;;;;;;0.60;0.60;;;2.90;99.90;;;;;;5092934;28;20036;-65
2023/03/07 06:16:11;;;;;;;0.93;0.32;;;3.00;99.90;;;;;;5092817;28;20403;-65
2023/03/07 06:18:36;;;;;;;8.77;0.50;;;2.90;99.90;;;;;;5074725;28;20040;-64
2023/03/07 06:21:07;;;;;;;6.13;0.60;;;2.90;99.90;;;;;;5092568;28;20499;-64
2023/03/07 06:23:35;;;;;;;4.00;1.17;;;2.90;99.90;;;;;;5092570;28;20032;-66
2023/03/07 06:26:02;;;;;;;5.80;0.90;;;3.60;99.90;;;;;;5092778;28;20121;-64
2023/03/07 06:28:28;;;;;;;1.55;0.40;;;2.80;99.90;;;;;;5095308;28;20040;-65
2023/03/07 06:30:53;;;;;;;4.32;0.60;;;2.80;99.90;;;;;;5096407;28;20040;-63
2023/03/07 06:33:19;;;;;;;3.70;0.47;;;2.90;99.90;;;;;;5096538;28;20047;-65
2023/03/07 06:35:45;;;;;;;6.13;0.50;;;2.90;99.90;;;;;;5061788;28;20492;-70
2023/03/07 06:38:12;;;;;;;3.03;0.60;;;2.90;99.90;;;;;;5077990;28;20105;-73
2023/03/07 06:40:38;;;;;;;4.57;1.15;;;2.90;99.90;;;;;;5078218;28;20085;-66
2023/03/07 06:43:03;;;;;;;3.75;0.65;;;3.00;99.90;;;;;;5096107;28;20040;-65
2023/03/07 06:45:29;;;;;;;1.25;0.90;;;2.90;99.90;;;;;;5096408;28;20071;-64
2023/03/07 06:47:55;;;;;;;0.90;0.60;;;3.00;99.90;;;;;;5096104;28;20525;-64
2023/03/07 06:50:21;;;;;;;3.10;0.75;;;3.00;99.90;;;;;;5096326;28;20036;-65
2023/03/07 06:52:48;;;;;;;1.60;0.70;;;3.00;99.90;;;;;;5096190;28;20035;-64
2023/03/07 06:55:14;;;;;;;1.00;0.70;;;2.90;99.90;;;;;;5095932;28;20054;-64
2023/03/07 06:57:41;;;;;;;1.10;0.57;;;2.90;99.90;;;;;;5095973;28;20468;-64
2023/03/07 07:00:07;;;;;;;4.32;0.52;;;2.90;99.90;;;;;;5061021;28;20051;-68
2023/03/07 07:02:33;;;;;;;2.65;0.52;;;2.80;99.90;;;;;;5077815;28;20040;-67
2023/03/07 07:04:59;;;;;;;1.08;0.63;;;2.80;99.90;;;;;;5095656;28;20063;-64
2023/03/07 07:07:25;;;;;;;2.88;0.75;;;2.80;99.90;;;;;;5077859;28;20090;-63
2023/03/07 07:09:50;;;;;;;1.88;0.60;;;2.70;99.90;;;;;;5095873;28;20043;-72
2023/03/07 07:12:17;;;;;;;3.22;0.85;;;2.70;99.90;;;;;;5095808;28;20479;-63
2023/03/07 07:14:43;;;;;;;1.33;0.57;;;2.70;99.90;;;;;;5095740;28;20082;-64
2023/03/07 07:17:09;;;;;;;1.25;0.57;;;2.70;99.90;;;;;;5095587;28;20035;-64
2023/03/07 07:19:34;;;;;;;0.55;0.30;;;2.80;99.90;;;;;;5095264;28;20464;-63
2023/03/07 07:22:00;;;;;;;2.20;0.43;;;2.70;99.90;;;;;;5095511;28;20036;-64
2023/03/07 07:24:26;;;;;;;1.55;0.43;;;2.60;99.90;;;;;;5095488;28;20077;-64
2023/03/07 07:26:52;;;;;;;0.22;0.22;;;2.60;99.90;;;;;;5095140;28;20407;-63
2023/03/07 07:29:18;;;;;;;0.40;0.40;;;2.50;99.90;;;;;;5095140;28;20119;-64
2023/03/07 07:31:43;;;;;;;1.25;0.63;;;2.60;99.90;;;;;;5095372;28;20040;-64
2023/03/07 07:34:09;;;;;;;4.47;0.52;;;2.30;99.90;;;;;;5094870;28;20079;-64
2023/03/07 07:36:35;;;;;;;1.80;0.73;;;2.60;99.90;;;;;;5095259;28;20035;-64
2023/03/07 07:39:05;;;;;;;0.35;0.22;;;2.60;99.90;;;;;;5075963;28;20432;-64
2023/03/07 07:41:31;;;;;;;0.63;0.60;;;2.70;99.90;;;;;;5077033;28;20048;-64
2023/03/07 07:43:57;;;;;;;4.82;0.40;;;2.50;99.90;;;;;;5095144;28;20089;-64
2023/03/07 07:46:23;;;;;;;1.23;0.43;;;2.70;99.90;;;;;;5095157;28;20032;-64
2023/03/07 07:48:48;;;;;;;2.05;0.65;;;2.70;99.90;;;;;;5095068;28;20043;-63
2023/03/07 07:51:14;;;;;;;5.78;1.23;;;2.50;99.90;;;;;;5095014;28;20395;-64
2023/03/07 07:53:40;;;;;;;7.03;0.38;;;2.80;99.90;;;;;;5094711;28;20432;-65
2023/03/07 07:56:05;;;;;;;1.55;0.85;;;2.80;99.90;;;;;;5094585;28;20036;-64
2023/03/07 07:58:31;;;;;;;1.80;0.55;;;2.90;99.90;;;;;;5076369;28;20044;-64
2023/03/07 08:00:57;;;;;;;1.58;0.50;;;2.90;99.90;;;;;;5076653;28;20051;-64
2023/03/07 08:03:23;;;;;;;2.83;1.27;;;3.00;99.90;;;;;;5094805;28;20032;-63
2023/03/07 08:05:48;;;;;;;2.67;0.32;;;3.50;99.90;;;;;;5059577;28;20051;-63
2023/03/07 08:08:15;;;;;;;1.25;0.38;;;3.00;99.90;;;;;;5094727;28;20095;-63
2023/03/07 08:10:42;;;;;;;3.40;0.35;;;3.00;99.90;;;;;;5094417;28;20494;-64
2023/03/07 08:13:11;;;;;;;0.88;0.40;;;3.00;99.90;;;;;;5094602;28;20044;-63
2023/03/07 08:15:37;;;;;;;0.63;0.30;;;3.00;99.90;;;;;;5076314;28;20491;-64
2023/03/07 08:18:02;;;;;;;2.00;0.32;;;3.00;99.90;;;;;;5094509;28;20161;-63
2023/03/07 08:20:28;;;;;;;1.85;0.32;;;3.10;99.90;;;;;;5076283;28;20055;-64
2023/03/07 08:22:53;;;;;;;0.93;0.52;;;3.00;99.90;;;;;;5094130;28;20048;-63
2023/03/07 08:25:22;;;;;;;0.57;0.40;;;3.00;99.90;;;;;;5076010;28;20043;-64
2023/03/07 08:27:53;;;;;;;1.17;0.50;;;3.10;99.90;;;;;;5094301;28;20028;-64
2023/03/07 08:30:20;;;;;;;1.50;0.50;;;3.10;99.90;;;;;;5094278;28;20119;-64
2023/03/07 08:32:49;;;;;;;3.90;0.52;;;3.10;99.90;;;;;;5076098;28;20062;-64
2023/03/07 08:35:15;;;;;;;0.40;0.20;;;3.10;99.90;;;;;;5093965;28;20461;-64
2023/03/07 08:37:40;;;;;;;0.90;0.28;;;3.10;99.90;;;;;;5093836;28;20036;-64
2023/03/07 08:40:07;;;;;;;1.73;0.50;;;3.20;99.90;;;;;;5094043;28;20048;-64
2023/03/07 08:42:32;;;;;;;2.85;0.88;;;3.30;99.90;;;;;;5093767;28;20038;-64
2023/03/07 08:44:58;;;;;;;1.33;0.70;;;3.30;99.90;;;;;;5093750;28;20130;-64
2023/03/07 08:47:23;;;;;;;0.52;0.22;;;3.30;99.90;;;;;;5094040;28;20043;-67
2023/03/07 08:49:49;;;;;;;0.60;0.20;;;3.40;99.90;;;;;;5093564;28;20475;-64
2023/03/07 08:52:14;;;;;;;2.33;0.60;;;3.40;99.90;;;;;;5093881;28;20119;-64
2023/03/07 08:54:40;;;;;;;1.40;0.20;;;3.40;99.90;;;;;;5075711;28;20090;-64
2023/03/07 08:57:06;;;;;;;2.35;0.43;;;3.40;99.90;;;;;;5093845;28;20036;-64
2023/03/07 08:59:31;;;;;;;2.83;0.52;;;3.60;99.90;;;;;;5075278;28;20032;-64
2023/03/07 09:01:57;;;;;;;0.90;0.30;;;3.60;99.90;;;;;;5093767;28;20075;-65
2023/03/07 09:04:23;;;;;;;1.75;0.30;;;3.70;99.90;;;;;;5093559;28;20043;-64
2023/03/07 09:06:49;;;;;;;0.43;0.30;;;3.70;99.90;;;;;;5093664;28;20075;-63
2023/03/07 09:09:14;;;;;;;0.98;0.35;;;3.70;99.90;;;;;;5093352;28;20071;-64
2023/03/07 09:11:40;;;;;;;4.20;0.77;;;3.70;99.90;;;;;;5093632;28;20036;-64
2023/03/07 09:14:06;;;;;;;0.43;0.20;;;3.70;99.90;;;;;;5093528;28;20485;-64
2023/03/07 09:16:31;;;;;;;4.47;0.45;;;3.70;99.90;;;;;;5093273;28;20059;-64
2023/03/07 09:18:58;;;;;;;1.30;0.73;;;3.80;99.90;;;;;;5093130;28;20130;-64
2023/03/07 09:21:23;;;;;;;3.85;0.57;;;3.80;99.90;;;;;;5075389;28;20074;-64
2023/03/07 09:23:49;;;;;;;1.45;0.47;;;3.80;99.90;;;;;;5075241;28;20081;-64
2023/03/07 09:26:15;;;;;;;2.35;0.20;;;3.80;99.90;;;;;;5093406;28;20035;-64
2023/03/07 09:28:41;;;;;;;1.85;0.47;;;3.70;99.90;;;;;;5093061;28;20479;-64
2023/03/07 09:31:08;;;;;;;0.93;0.32;;;3.70;99.90;;;;;;5058283;28;20126;-64
2023/03/07 09:33:34;;;;;;;0.17;0.17;;;3.60;99.90;;;;;;5092963;28;20040;-64
2023/03/07 09:36:03;;;;;;;1.92;0.55;;;3.50;99.90;;;;;;5093224;28;20043;-64
2023/03/07 09:38:29;;;;;;;2.40;0.40;;;3.40;99.90;;;;;;5074761;28;20075;-64
2023/03/07 09:40:57;;;;;;;0.20;0.20;;;3.20;99.90;;;;;;5092911;28;20495;-64
2023/03/07 09:43:32;;;;;;;1.35;0.50;;;2.90;99.90;;;;;;5074810;28;20047;-63
2023/03/07 09:46:43;;;;;;;4.22;0.68;;;2.60;99.90;;;;;;5093165;28;20502;-63
2023/03/07 09:49:19;;;;;;;0.65;0.40;;;2.40;99.90;;;;;;5010922;28;20041;-63
2023/03/07 09:51:49;;;;;;;5.15;0.75;;;2.10;99.90;;;;;;5081492;28;20101;-63
2023/03/07 09:54:22;;;;;;;1.55;0.47;;;2.50;99.90;;;;;;5093080;28;20113;-64
2023/03/07 09:56:57;;;;;;;1.33;0.85;;;1.90;99.90;;;;;;5093098;28;20040;-64
2023/03/07 09:59:43;;;;;;;1.55;0.32;;;1.90;99.90;;;;;;5092989;28;20044;-64
2023/03/07 10:02:33;;;;;;;0.45;0.28;;;1.90;99.90;;;;;;5075116;28;20071;-69
2023/03/07 10:05:12;;;;;;;0.47;0.30;;;2.00;99.90;;;;;;5096818;28;20441;-63
2023/03/07 10:07:38;;;;;;;0.82;0.30;;;2.10;99.90;;;;;;5097084;28;20391;-64
2023/03/07 10:10:10;;;;;;;0.45;0.25;;;2.20;99.90;;;;;;5097069;28;20115;-64
2023/03/07 10:12:41;;;;;;;2.72;0.50;;;2.30;99.90;;;;;;5078778;28;20079;-64
2023/03/07 10:15:41;;;;;;;;;;;2.30;99.90;;;;;;5096986;28;20051;-64
2023/03/07 10:18:20;;;;;;;0.50;0.50;;;2.40;99.90;;;;;;5035620;28;19930;-64
2023/03/07 10:21:17;;;;;;;0.63;0.30;;;2.30;99.90;;;;;;5096552;28;20101;-64
2023/03/07 10:24:00;;;;;;;1.42;0.30;;;2.50;99.90;;;;;;5097136;28;20074;-64
2023/03/07 10:26:37;;;;;;;2.80;0.40;;;2.60;99.90;;;;;;5078565;28;20056;-64
2023/03/07 10:29:13;;;;;;;3.28;0.38;;;2.80;99.90;;;;;;5078503;28;20044;-63
2023/03/07 10:31:44;;;;;;;3.25;0.88;;;2.90;99.90;;;;;;5096651;28;20507;-64
2023/03/07 10:34:23;;;;;;;0.53;0.33;;;3.10;99.90;;;;;;5096553;28;20388;-64
2023/03/07 10:36:51;;;;;;;5.95;0.50;;;3.30;99.90;;;;;;5096180;28;20036;-64
2023/03/07 10:39:51;;;;;;;1.15;0.60;;;3.50;99.90;;;;;;5096379;28;20078;-64
2023/03/07 10:42:20;;;;;;;0.85;0.40;;;3.70;99.90;;;;;;5078367;28;20040;-64
2023/03/07 10:44:47;;;;;;;3.15;0.63;;;3.90;99.90;;;;;;5078100;28;20040;-64
2023/03/07 10:47:25;;;;;;;3.03;0.73;;;3.90;99.90;;;;;;5096353;28;20040;-64
2023/03/07 10:49:55;;;;;;;1.55;0.40;;;4.10;99.90;;;;;;5096296;28;20055;-64
2023/03/07 10:52:46;;;;;;;1.15;0.47;;;4.20;99.90;;;;;;5096213;28;20051;-64
2023/03/07 10:55:31;;;;;;;3.90;0.38;;;4.40;99.90;;;;;;5078005;28;20090;-64
2023/03/07 10:58:24;;;;;;;2.85;0.73;;;4.60;99.90;;;;;;5095971;28;20459;-64
2023/03/07 11:01:17;;;;;;;3.10;0.57;;;4.70;99.90;;;;;;5077633;28;20157;-64
2023/03/07 11:03:51;;;;;;;1.77;0.40;;;4.80;99.90;;;;;;5087287;28;20044;-64
2023/03/07 11:06:26;;;;;;;3.40;0.60;;;5.00;99.90;;;;;;5095540;28;20121;-64
2023/03/07 11:08:52;;;;;;;2.70;0.70;;;5.10;99.90;;;;;;5077827;28;20043;-64
2023/03/07 11:11:31;;;;;;;2.22;1.30;;;5.20;99.90;;;;;;5095829;28;20039;-64
2023/03/07 11:14:07;;;;;;;3.10;0.80;;;5.20;99.90;;;;;;5094564;28;20457;-64
2023/03/07 11:16:38;;;;;;;0.75;0.52;;;5.20;99.90;;;;;;5077375;28;20112;-64
2023/03/07 11:19:22;;;;;;;;;;;5.40;99.90;;;;;;5096080;28;20040;-64
2023/03/07 11:21:58;;;;;;;2.63;0.57;;;5.40;99.90;;;;;;5095677;28;20291;-64
2023/03/07 11:24:27;;;;;;;1.17;0.55;;;5.40;99.90;;;;;;5095630;28;20483;-64
2023/03/07 11:26:55;;;;;;;0.47;0.40;;;5.50;99.90;;;;;;5077148;28;20138;-63
2023/03/07 11:29:21;;;;;;;4.90;0.68;;;5.50;99.90;;;;;;5095208;28;20043;-63
2023/03/07 11:32:01;;;;;;;0.63;0.47;;;5.50;99.90;;;;;;5095533;28;20093;-63
2023/03/07 11:34:32;;;;;;;2.22;0.65;;;5.60;99.90;;;;;;5095257;28;20499;-63
2023/03/07 11:37:33;;;;;;;1.50;0.55;;;5.70;99.90;;;;;;5095356;28;20058;-63
2023/03/07 11:40:04;;;;;;;1.70;0.57;;;6.80;99.90;;;;;;5063664;28;20055;-63
2023/03/07 11:42:49;;;;;;;2.58;1.00;;;6.20;99.90;;;;;;5095273;28;20044;-63
2023/03/07 11:45:33;;;;;;;2.83;0.80;;;6.10;99.90;;;;;;5076880;28;20114;-63
2023/03/07 11:48:19;;;;;;;6.82;0.77;;;6.10;99.90;;;;;;5094922;28;20051;-64
2023/03/07 11:51:05;;;;;;;1.67;0.80;;;6.10;99.90;;;;;;5094862;28;20039;-63
2023/03/07 11:53:42;;;;;;;0.82;0.50;;;6.00;99.90;;;;;;5095094;28;20422;-63
2023/03/07 11:56:36;;;;;;;1.48;0.30;;;6.00;99.90;;;;;;5095048;28;20482;-63
2023/03/07 11:59:14;;;;;;;1.35;0.47;;;6.10;99.90;;;;;;5094844;28;20039;-63
2023/03/07 12:01:57;;;;;;;3.50;1.15;;;6.10;99.90;;;;;;5094593;28;20036;-64
2023/03/07 12:04:38;;;;;;;2.78;0.60;;;6.00;79.30;;;;;;5094428;28;20067;-63
2023/03/07 12:07:27;;;;;;;2.53;0.73;;;6.00;77.20;;;;;;5094581;28;20131;-63
2023/03/07 12:10:00;;;;;;;0.82;0.50;;;5.90;53.60;;;;;;5094740;28;20036;-64
2023/03/07 12:12:41;;;;;;;1.50;0.68;;;5.90;11.30;;;;;;5094676;28;20040;-63
2023/03/07 12:15:28;;;;;;;0.55;0.40;;;5.90;1.00;;;;;;5094384;28;20516;-63
2023/03/07 12:18:12;;;;;;;1.83;0.77;;;5.90;30.60;;;;;;5094239;28;20438;-64
2023/03/07 12:21:30;;;;;;;2.78;0.70;;;5.80;38.60;;;;;;5094528;28;20032;-63
2023/03/07 12:24:09;;;;;;;2.92;0.63;;;5.70;1.00;;;;;;5049213;28;20040;-63
2023/03/07 12:27:01;;;;;;;0.32;0.32;;;5.80;1.00;;;;;;5075998;28;20197;-63
2023/03/07 12:29:35;;;;;;;2.42;0.50;;;5.80;1.00;;;;;;5094410;28;20051;-63
2023/03/07 12:32:07;;;;;;;1.63;0.60;;;5.70;1.00;;;;;;5094205;28;20051;-63
2023/03/07 12:34:46;;;;;;;6.25;0.57;;;5.50;1.00;;;;;;5094288;28;20122;-63
2023/03/07 12:37:43;;;;;;;2.10;0.57;;;5.20;1.00;;;;;;5076197;28;20055;-63
2023/03/07 12:40:19;;;;;;;2.60;0.43;;;5.10;29.90;;;;;;5076720;28;20491;-63
2023/03/07 12:43:22;;;;;;;2.90;0.70;;;5.00;13.20;;;;;;5094122;28;20047;-63
2023/03/07 12:46:07;;;;;;;2.08;0.40;;;5.00;1.00;;;;;;5094091;28;20474;-63
2023/03/07 12:49:03;;;;;;;1.45;0.73;;;5.00;1.00;;;;;;5094069;28;20082;-63
2023/03/07 12:51:37;;;;;;;2.47;0.80;;;5.10;1.00;;;;;;5091836;28;20044;-63
2023/03/07 12:54:24;;;;;;;2.83;0.85;;;5.20;1.00;;;;;;5093589;28;20044;-63
2023/03/07 12:56:55;;;;;;;4.45;0.70;;;5.20;1.00;;;;;;5093791;28;20386;-64
2023/03/07 12:59:21;;;;;;;;;;;5.30;1.00;;;;;;5094149;28;20412;-67
2023/03/07 13:02:00;;;;;;;3.25;0.50;;;5.70;1.00;;;;;;5093704;28;19923;-63
2023/03/07 13:04:36;;;;;;;2.83;0.90;;;5.30;1.00;;;;;;5093525;28;20433;-63
2023/03/07 13:07:19;;;;;;;0.85;0.55;;;5.30;1.00;;;;;;5075267;28;20057;-63
2023/03/07 13:09:46;;;;;;;1.55;0.55;;;5.30;1.00;;;;;;5093865;28;20040;-63
2023/03/07 13:12:15;;;;;;;0.38;0.35;;;5.20;1.00;;;;;;5093624;28;20065;-63